Weather at Thunder Bay Airport

Public forecast

Using degrees Celsius for public forecast. Weather courtesy of forecast.io.

Current aviation weather report (METAR) for Thunder Bay Airport

Retrieved 2020/10/22 14:00 UTC (34 minutes ago):

CYQT 221400Z 32003KT 20SM FEW020 OVC140 M00/M01 A3028 RMK SC1AC8 SC TR SLP266

Aviation forecast (TAF) for Thunder Bay Airport

Retrieved 2020/10/22 14:42 UTC (0 seconds ago):

TAF CYQT 221339Z 2214/2302 VRB03KT P6SM FEW020 OVC150 TEMPO 2214/2223 BKN020 OVC150 BECMG 2216/2218 05008KT FM222300 04009KT P6SM -SN BKN020 OVC060 TEMPO 2223/2302 3SM -SN BKN008 OVC015 RMK NXT FCST BY 222000Z